Latest Weather Observations for Adelaide

IDS60801

Issued at 2:31 pm CST Tuesday 7 July 2015 (issued every 30 minutes, with the page automatically refreshed every 10 minutes)

About weather observations | Map of weather stations | Latest weather observations for SA | Other Formats
Station Details ID: 023090 Name: KENT TOWN Lat: -34.92 Lon: 138.62 Height: 48.0 m
Data from the previous 72 hours. | See also: Recent months at Adelaide
Date/Time
CST
Temp
°C
App
Temp
°C
Dew
Point
Rel
Hum
%
Delta-T
°C
Wind Press
QNH
hPa
Press
MSL
hPa
Rain
since 9 am
mm
Dir
 
Spd
km/h
Gust
km/h
Spd
kts
Gust
kts
07/02:30pm 13.3 11.3 10.2 81 1.6 SSW 11 17 6 9 1021.7 - 0.2
07/02:00pm 14.5 12.2 10.3 76 2.2 WSW 13 22 7 12 1021.5 - 0.2
07/01:30pm 14.0 11.6 10.1 77 2.0 WSW 13 19 7 10 1021.5 - 0.2
07/01:00pm 14.2 11.9 10.4 78 2.0 W 13 24 7 13 1021.8 - 0.2
07/12:30pm 14.1 11.9 10.9 81 1.7 WSW 13 20 7 11 1022.0 - 0.2
07/12:00pm 14.4 12.6 11.0 80 1.8 W 11 20 6 11 1022.2 1022.3 0.2
07/11:30am 13.8 12.0 10.7 81 1.6 WSW 11 19 6 10 1022.4 - 0.2
07/11:00am 13.2 11.1 11.3 88 1.0 WSW 13 24 7 13 1022.5 - 0.2
07/10:30am 13.2 10.8 11.3 88 1.0 WSW 15 24 8 13 1022.6 - 0.2
07/10:00am 13.1 12.1 12.2 94 0.5 W 9 19 5 10 1022.6 - 0.2
07/09:30am 13.1 12.0 12.0 93 0.6 W 9 15 5 8 1022.3 - 0.0
07/09:00am 12.5 11.3 11.6 94 0.5 WNW 9 17 5 9 1022.1 1022.2 4.8
07/08:30am 11.9 10.6 11.1 95 0.4 W 9 17 5 9 1022.0 - 4.6
07/08:00am 11.7 10.7 11.1 96 0.3 W 7 13 4 7 1021.7 - 4.6
07/07:30am 11.7 10.7 11.1 96 0.3 WSW 7 13 4 7 1021.4 - 4.6
07/07:00am 11.5 10.7 11.1 97 0.2 WSW 6 11 3 6 1021.2 - 4.4
07/06:30am 11.5 10.4 10.7 95 0.4 WNW 7 11 4 6 1020.8 - 3.6
07/06:00am 11.5 10.0 10.7 95 0.4 W 9 17 5 9 1020.4 1020.5 3.4
07/05:30am 11.4 10.0 10.8 96 0.3 WNW 9 13 5 7 1020.3 - 3.4
07/05:00am 11.5 10.5 10.9 96 0.3 W 7 13 4 7 1020.1 - 3.4
07/04:30am 11.5 10.4 10.7 95 0.4 WNW 7 11 4 6 1019.9 - 3.4
07/04:00am 11.3 10.4 10.5 95 0.4 NW 6 9 3 5 1020.0 - 3.4
07/03:30am 11.3 10.2 10.7 96 0.3 NW 7 11 4 6 1020.1 - 3.4
07/03:00am 11.3 10.4 10.7 96 0.3 NW 6 9 3 5 1020.0 1020.1 3.4
07/02:30am 11.5 10.5 10.9 96 0.3 W 7 11 4 6 1020.0 - 3.4
07/02:00am 11.6 10.2 11.0 96 0.3 W 9 15 5 8 1019.9 - 3.4
07/01:30am 11.7 9.9 10.9 95 0.4 W 11 17 6 9 1019.9 - 3.4
07/01:00am 11.6 10.2 11.0 96 0.3 W 9 17 5 9 1019.8 - 3.4
07/12:30am 11.7 10.0 11.1 96 0.3 W 11 17 6 9 1019.9 - 3.4
07/12:00am 11.7 10.3 10.9 95 0.4 W 9 17 5 9 1019.8 1019.9 3.4
 
Date/Time
CST
Temp
°C
App
Temp
°C
Dew
Point
Rel
Hum
%
Delta-T
°C
Wind Press
QNH
hPa
Press
MSL
hPa
Rain
since 9 am
mm
Dir
 
Spd
km/h
Gust
km/h
Spd
kts
Gust
kts
06/11:30pm 11.8 10.8 11.0 95 0.4 W 7 17 4 9 1019.9 - 2.8
06/11:00pm 11.9 10.4 10.7 92 0.6 W 9 15 5 8 1020.0 - 2.6
06/10:30pm 11.9 10.1 10.7 92 0.6 W 11 17 6 9 1019.9 - 2.6
06/10:00pm 11.8 10.3 10.6 92 0.6 W 9 15 5 8 1019.8 - 2.6
06/09:30pm 11.9 10.4 10.5 91 0.7 W 9 17 5 9 1019.6 - 2.4
06/09:00pm 11.9 10.4 10.7 92 0.6 W 9 15 5 8 1019.3 1019.4 2.4
06/08:30pm 12.0 10.5 10.4 90 0.8 WNW 9 15 5 8 1019.0 - 2.2
06/08:00pm 11.7 11.5 10.5 92 0.6 WSW 2 11 1 6 1018.8 - 2.2
06/07:30pm 11.8 10.7 10.6 92 0.6 WNW 7 11 4 6 1018.6 - 2.2
06/07:00pm 12.0 11.0 10.4 90 0.8 NW 6 7 3 4 1018.4 - 2.0
06/06:30pm 11.9 10.3 10.3 90 0.8 W 9 13 5 7 1018.3 - 2.0
06/06:00pm 11.9 10.7 10.3 90 0.8 WSW 7 15 4 8 1018.1 1018.2 2.0
06/05:30pm 12.3 11.5 11.2 93 0.6 WNW 6 11 3 6 1017.8 - 2.0
06/05:00pm 12.3 10.5 11.0 92 0.7 W 11 19 6 10 1017.5 - 1.6
06/04:30pm 12.6 10.6 11.5 93 0.6 WSW 13 20 7 11 1017.3 - 1.6
06/04:00pm 13.9 11.9 10.2 78 1.9 W 11 20 6 11 1016.9 - 0.4
06/03:30pm 14.1 11.9 10.7 80 1.8 WNW 13 22 7 12 1016.9 - 0.4
06/03:00pm 14.0 12.0 10.2 78 2.0 WNW 11 19 6 10 1016.7 1016.8 0.4
06/02:30pm 14.1 11.9 10.7 80 1.8 WNW 13 20 7 11 1016.7 - 0.4
06/02:00pm 13.5 10.9 10.6 82 1.5 W 15 28 8 15 1016.7 - 0.4
06/01:30pm 15.1 11.3 9.0 67 3.1 WNW 19 28 10 15 1016.8 - 0.0
06/01:00pm 15.5 12.7 9.9 69 2.9 WNW 15 26 8 14 1016.9 - 0.0
06/12:30pm 15.0 11.5 8.7 66 3.2 WNW 17 28 9 15 1017.0 - 0.0
06/12:00pm 15.3 12.6 10.4 72 2.6 W 15 28 8 15 1017.2 1017.3 0.0
06/11:30am 15.3 12.6 9.1 66 3.2 WNW 13 24 7 13 1017.4 - 0.0
06/11:00am 14.2 11.4 8.6 69 2.8 W 13 24 7 13 1017.4 - 0.0
06/10:30am 14.2 13.1 10.8 80 1.8 N 7 11 4 6 1017.4 - 0.0
06/10:00am 12.0 10.7 9.8 86 1.1 N 7 15 4 8 1017.3 - 0.0
06/09:30am 11.1 9.2 9.1 87 1.0 N 9 17 5 9 1017.2 - 0.0
06/09:00am 10.8 9.2 8.8 87 1.0 NNE 7 11 4 6 1016.9 1017.0 6.2
06/08:30am 10.5 9.5 8.9 90 0.8 NNE 4 11 2 6 1016.5 - 6.2
06/08:00am 10.3 8.7 8.9 91 0.7 NNE 7 13 4 7 1016.2 - 6.2
06/07:30am 10.1 8.5 8.7 91 0.7 NE 7 11 4 6 1016.0 - 6.2
06/07:00am 9.9 8.2 8.5 91 0.7 ENE 7 11 4 6 1015.9 - 6.2
06/06:30am 9.9 8.8 8.5 91 0.7 ENE 4 9 2 5 1015.9 - 6.2
06/06:00am 10.0 8.3 8.4 90 0.8 NNE 7 11 4 6 1015.8 1015.9 6.2
06/05:30am 9.9 8.2 8.3 90 0.8 NE 7 11 4 6 1015.7 - 6.2
06/05:00am 9.7 8.3 8.9 95 0.4 E 6 9 3 5 1015.9 - 6.2
06/04:30am 9.8 8.3 8.4 91 0.7 ENE 6 11 3 6 1015.4 - 4.0
06/04:00am 9.7 8.3 8.7 93 0.5 E 6 9 3 5 1016.0 - 4.0
06/03:30am 10.2 8.7 8.4 89 0.9 NE 6 11 3 6 1016.0 - 1.8
06/03:00am 10.7 9.8 7.8 82 1.4 SW 2 9 1 5 1016.8 1016.9 1.2
06/02:30am 12.0 9.5 4.8 61 3.3 NW 7 13 4 7 1016.1 - 0.0
06/02:00am 12.2 8.9 4.5 59 3.5 N 11 22 6 12 1015.6 - 0.0
06/01:30am 12.2 8.6 5.0 61 3.3 N 13 22 7 12 1015.4 - 0.0
06/01:00am 13.1 9.3 3.8 53 4.2 N 13 20 7 11 1016.1 - 0.0
06/12:30am 13.1 9.7 3.8 53 4.2 NNE 11 19 6 10 1015.9 - 0.0
06/12:00am 13.3 10.2 3.8 52 4.3 NNE 9 17 5 9 1016.5 1016.6 0.0
 
Date/Time
CST
Temp
°C
App
Temp
°C
Dew
Point
Rel
Hum
%
Delta-T
°C
Wind Press
QNH
hPa
Press
MSL
hPa
Rain
since 9 am
mm
Dir
 
Spd
km/h
Gust
km/h
Spd
kts
Gust
kts
05/11:30pm 13.2 10.2 4.2 54 4.1 N 9 15 5 8 1016.9 - 0.0
05/11:00pm 13.3 10.3 4.1 53 4.2 NNE 9 13 5 7 1016.9 - 0.0
05/10:30pm 13.7 11.0 3.8 51 4.5 NNE 7 15 4 8 1017.0 - 0.0
05/10:00pm 13.7 10.7 4.3 53 4.3 NNE 9 19 5 10 1017.2 - 0.0
05/09:30pm 13.8 11.3 4.5 53 4.3 NNE 7 17 4 9 1017.5 - 0.0
05/09:00pm 13.7 10.8 4.9 55 4.1 NNE 9 15 5 8 1017.5 1017.6 0.0
05/08:30pm 14.1 11.4 3.8 50 4.7 NNE 7 13 4 7 1017.7 - 0.0
05/08:00pm 14.0 11.5 3.9 50 4.6 NE 6 11 3 6 1017.5 - 0.0
05/07:30pm 14.2 11.5 3.9 50 4.7 NNE 7 15 4 8 1017.4 - 0.0
05/07:00pm 14.1 12.1 4.6 52 4.4 ENE 4 7 2 4 1017.5 - 0.0
05/06:30pm 14.3 12.8 5.1 54 4.3 ENE 2 7 1 4 1017.4 - 0.0
05/06:00pm 14.7 12.6 5.7 55 4.3 N 6 9 3 5 1017.3 1017.4 0.0
05/05:30pm 15.0 12.7 4.7 50 4.8 N 6 11 3 6 1017.1 - 0.0
05/05:00pm 15.1 12.5 4.3 48 5.0 N 7 11 4 6 1017.2 - 0.0
05/04:30pm 15.6 13.0 4.2 46 5.3 NNW 7 15 4 8 1017.4 - 0.0
05/04:00pm 16.6 13.2 4.2 43 5.8 NNW 11 17 6 9 1017.6 - 0.0
05/03:30pm 17.0 13.7 4.5 43 5.9 NNW 11 19 6 10 1017.6 - 0.0
05/03:00pm 17.2 14.1 5.4 45 5.7 NW 11 19 6 10 1017.7 1017.8 0.0
05/02:30pm 16.6 13.1 5.3 47 5.4 NNW 13 24 7 13 1017.9 - 0.0
05/02:00pm 16.9 13.3 4.9 45 5.7 NW 13 20 7 11 1018.1 - 0.0
05/01:30pm 16.9 13.1 4.1 42 6.0 NNW 13 22 7 12 1018.4 - 0.0
05/01:00pm 16.4 12.7 4.2 44 5.7 NNW 13 19 7 10 1018.9 - 0.0
05/12:30pm 16.1 12.9 5.2 48 5.2 NNW 11 19 6 10 1019.4 - 0.0
05/12:00pm 15.3 12.2 5.4 51 4.7 N 11 19 6 10 1019.8 1019.9 0.0
05/11:30am 14.8 11.6 5.3 53 4.5 N 11 19 6 10 1020.3 - 0.0
05/11:00am 14.1 10.8 4.8 53 4.3 N 11 17 6 9 1020.8 - 0.0
05/10:30am 13.6 10.3 4.7 55 4.1 N 11 19 6 10 1021.0 - 0.0
05/10:00am 12.9 9.7 5.1 59 3.6 NNE 11 15 6 8 1021.1 - 0.0
05/09:30am 12.1 9.2 4.6 60 3.4 NNE 9 17 5 9 1021.2 - 0.0
05/09:00am 11.2 8.8 5.3 67 2.7 NE 7 11 4 6 1021.1 1021.2 0.0
05/08:30am 8.7 7.3 5.4 80 1.5 ENE 2 7 1 4 1021.1 - 0.0
05/08:00am 6.8 4.9 5.0 88 0.8 ENE 4 7 2 4 1021.0 - 0.0
05/07:30am 5.3 4.1 4.4 94 0.4 CALM 0 6 0 3 1020.9 - 0.0
05/07:00am 5.0 3.7 4.3 95 0.3 CALM 0 2 0 1 1020.7 - 0.0
05/06:30am 5.1 3.9 4.4 95 0.3 CALM 0 6 0 3 1020.7 - 0.0
05/06:00am 5.1 3.9 4.4 95 0.3 CALM 0 0 0 0 1020.5 1020.6 0.0
05/05:30am 5.3 4.1 4.4 94 0.4 CALM 0 0 0 0 1020.5 - 0.0
05/05:00am 5.7 4.5 4.8 94 0.4 CALM 0 0 0 0 1020.5 - 0.0
05/04:30am 5.8 4.7 4.9 94 0.4 CALM 0 0 0 0 1020.4 - 0.0
05/04:00am 5.9 4.8 5.0 94 0.4 CALM 0 4 0 2 1020.5 - 0.0
05/03:30am 6.1 5.0 5.2 94 0.4 CALM 0 6 0 3 1020.7 - 0.0
05/03:00am 5.9 4.8 5.2 95 0.3 CALM 0 0 0 0 1020.8 1020.9 0.0
05/02:30am 6.3 5.3 5.4 94 0.4 CALM 0 0 0 0 1021.0 - 0.0
05/02:00am 6.6 5.6 5.5 93 0.5 CALM 0 0 0 0 1020.9 - 0.0
05/01:30am 6.8 5.8 5.7 93 0.5 CALM 0 6 0 3 1021.0 - 0.0
05/01:00am 6.6 5.6 5.7 94 0.4 CALM 0 0 0 0 1021.1 - 0.0
05/12:30am 7.1 6.2 6.0 93 0.5 CALM 0 0 0 0 1021.5 - 0.0
05/12:00am 7.2 5.9 6.1 93 0.5 ENE 2 7 1 4 1021.7 1021.8 0.0
 
Date/Time
CST
Temp
°C
App
Temp
°C
Dew
Point
Rel
Hum
%
Delta-T
°C
Wind Press
QNH
hPa
Press
MSL
hPa
Rain
since 9 am
mm
Dir
 
Spd
km/h
Gust
km/h
Spd
kts
Gust
kts
04/11:30pm 7.4 6.5 6.1 91 0.6 CALM 0 0 0 0 1021.9 - 0.0
04/11:00pm 7.5 5.8 5.9 90 0.7 NNW 4 7 2 4 1022.0 - 0.0
04/10:30pm 7.5 6.7 6.4 93 0.5 CALM 0 0 0 0 1021.8 - 0.0
04/10:00pm 7.8 7.0 6.5 91 0.6 CALM 0 0 0 0 1021.9 - 0.0
04/09:30pm 8.3 7.5 6.3 87 0.9 CALM 0 0 0 0 1021.9 - 0.0
04/09:00pm 8.7 8.0 7.0 89 0.8 CALM 0 6 0 3 1022.0 1022.1 0.0
04/08:30pm 8.9 8.1 6.7 86 1.0 CALM 0 0 0 0 1022.3 - 0.0
04/08:00pm 9.3 8.6 6.9 85 1.1 CALM 0 0 0 0 1022.5 - 0.0
04/07:30pm 10.2 9.5 6.8 79 1.6 CALM 0 0 0 0 1022.4 - 0.0
04/07:00pm 10.8 9.7 7.0 77 1.8 E 2 7 1 4 1022.3 - 0.0
04/06:30pm 11.4 9.6 7.2 75 2.0 E 6 9 3 5 1022.3 - 0.0
04/06:00pm 12.2 11.5 7.0 70 2.5 CALM 0 0 0 0 1022.2 1022.3 0.0
04/05:30pm 12.8 12.2 7.2 69 2.7 CALM 0 0 0 0 1022.0 - 0.0
04/05:00pm 14.4 12.5 6.5 59 3.8 N 6 9 3 5 1021.9 - 0.0
04/04:30pm 15.2 12.9 5.8 53 4.5 NNW 7 9 4 5 1021.8 - 0.0
04/04:00pm 16.0 14.0 6.1 52 4.8 NNW 6 11 3 6 1022.0 - 0.0
04/03:30pm 16.1 13.5 6.2 52 4.8 N 9 13 5 7 1022.0 - 0.0
04/03:00pm 15.5 12.9 5.9 52 4.6 N 9 13 5 7 1022.0 1022.1 0.0

Other Formats:

Comma delimited format used in spreadsheet applications
http://www.bom.gov.au/fwo/IDS60801/IDS60801.94675.axf

JavaScript Object Notation format (JSON) in row-major order
http://www.bom.gov.au/fwo/IDS60801/IDS60801.94675.json